Time;durP1;ratioP1;P1;durP2;ratioP2;P2;SDS_P1;SDS_P2;PMS_P1;PMS_P2;Temp;Humidity;BMP_temperature;BMP_pressure;BME280_temperature;BME280_humidity;BME280_pressure;Samples;Min_cycle;Max_cycle;Signal;HPM_P1;HPM_P2
2023/01/01 00:01:04;;;;;;;;;;;9.70;99.90;;;;;;5069216;28;19916;-57
2023/01/01 00:03:30;;;;;;;;;;;9.70;99.90;;;;;;5069080;28;19913;-56
2023/01/01 00:05:55;;;;;;;;;;;9.70;99.90;;;;;;5072692;28;19920;-54
2023/01/01 00:08:21;;;;;;;;;;;9.70;99.90;;;;;;5069081;28;19913;-55
2023/01/01 00:10:46;;;;;;;;;;;9.70;99.90;;;;;;5065729;28;20011;-54
2023/01/01 00:13:13;;;;;;;;;;;9.70;99.90;;;;;;5074028;28;20377;-57
2023/01/01 00:15:38;;;;;;;;;;;9.60;99.90;;;;;;5084485;28;19913;-56
2023/01/01 00:18:04;;;;;;;;;;;9.60;99.90;;;;;;5083775;28;19913;-56
2023/01/01 00:20:29;;;;;;;;;;;9.60;99.90;;;;;;5074651;28;19958;-55
2023/01/01 00:22:55;;;;;;;;;;;9.70;99.90;;;;;;5085674;28;19913;-57
2023/01/01 00:25:20;;;;;;;;;;;9.60;99.90;;;;;;5094427;28;19981;-57
2023/01/01 00:27:46;;;;;;;;;;;9.70;99.90;;;;;;5092002;28;19912;-55
2023/01/01 00:30:12;;;;;;;;;;;9.70;99.90;;;;;;5092029;28;20007;-56
2023/01/01 00:32:37;;;;;;;;;;;9.90;99.90;;;;;;5093049;28;20050;-57
2023/01/01 00:35:03;;;;;;;;;;;9.70;99.90;;;;;;5094485;28;19927;-54
2023/01/01 00:37:29;;;;;;;;;;;9.50;99.90;;;;;;5094755;28;19912;-56
2023/01/01 00:39:54;;;;;;;;;;;9.60;99.90;;;;;;5082327;28;20376;-57
2023/01/01 00:42:20;;;;;;;;;;;9.80;99.90;;;;;;5074341;28;20003;-56
2023/01/01 00:44:45;;;;;;;;;;;9.70;99.90;;;;;;5074360;28;20014;-57
2023/01/01 00:47:11;;;;;;;;;;;9.30;99.90;;;;;;5091775;28;20211;-56
2023/01/01 00:49:36;;;;;;;;;;;9.60;99.90;;;;;;5094242;28;19912;-53
2023/01/01 00:52:02;;;;;;;;;;;9.70;99.90;;;;;;5094375;28;19912;-56
2023/01/01 00:54:28;;;;;;;;;;;9.60;99.90;;;;;;5087097;28;20483;-56
2023/01/01 00:56:54;;;;;;;;;;;9.70;99.90;;;;;;5074072;28;19913;-55
2023/01/01 00:59:20;;;;;;;;;;;9.70;99.90;;;;;;5088140;28;20288;-57
2023/01/01 01:01:45;;;;;;;;;;;9.80;99.90;;;;;;5079951;28;19922;-57
2023/01/01 01:04:11;;;;;;;;;;;9.80;99.90;;;;;;5073906;28;19966;-55
2023/01/01 01:06:36;;;;;;;;;;;9.60;99.90;;;;;;5081580;28;19916;-54
2023/01/01 01:09:03;;;;;;;;;;;9.70;99.90;;;;;;5093709;28;19999;-57
2023/01/01 01:11:29;;;;;;;;;;;9.70;99.90;;;;;;5082322;28;20011;-57
2023/01/01 01:13:55;;;;;;;;;;;9.80;99.90;;;;;;5073628;28;19999;-55
2023/01/01 01:16:23;;;;;;;;;;;9.70;99.90;;;;;;5070199;28;20373;-57
2023/01/01 01:18:49;;;;;;;;;;;9.80;99.90;;;;;;5079090;28;20010;-56
2023/01/01 01:21:15;;;;;;;;;;;9.70;99.90;;;;;;5080080;28;19959;-56
2023/01/01 01:23:41;;;;;;;;;;;9.80;99.90;;;;;;5073600;28;20261;-54
2023/01/01 01:26:07;;;;;;;;;;;9.30;99.90;;;;;;5073159;28;19919;-56
2023/01/01 01:28:32;;;;;;;;;;;9.70;99.90;;;;;;5072875;28;19920;-56
2023/01/01 01:30:58;;;;;;;;;;;9.60;99.90;;;;;;5073255;28;19946;-53
2023/01/01 01:33:24;;;;;;;;;;;9.60;99.90;;;;;;5072814;28;19958;-56
2023/01/01 01:35:50;;;;;;;;;;;9.60;99.90;;;;;;5072832;28;19916;-53
2023/01/01 01:38:16;;;;;;;;;;;9.60;99.90;;;;;;5073442;28;19962;-56
2023/01/01 01:40:42;;;;;;;;;;;12.50;99.90;;;;;;5064396;28;20326;-57
2023/01/01 01:43:28;;;;;;;;;;;9.60;99.90;;;;;;5081212;28;19912;-56
2023/01/01 01:45:55;;;;;;;;;;;9.50;99.90;;;;;;5062424;28;19916;-54
2023/01/01 01:48:22;;;;;;;;;;;9.50;99.90;;;;;;5072986;28;19908;-56
2023/01/01 01:50:48;;;;;;;;;;;9.50;99.90;;;;;;5073023;28;20311;-54
2023/01/01 01:53:26;;;;;;;;;;;6.10;99.90;;;;;;5072965;28;19919;-57
2023/01/01 01:55:54;;;;;;;;;;;9.60;99.90;;;;;;5055099;28;19912;-57
2023/01/01 01:58:20;;;;;;;;;;;9.50;99.90;;;;;;5072857;28;19909;-56
2023/01/01 02:00:46;;;;;;;;;;;9.50;99.90;;;;;;5078213;28;19946;-54
2023/01/01 02:03:21;;;;;;;;;;;9.70;99.90;;;;;;5092942;28;19947;-57
2023/01/01 02:05:47;;;;;;;;;;;9.50;99.90;;;;;;5092919;28;19912;-54
2023/01/01 02:08:14;;;;;;;;;;;9.60;99.90;;;;;;5074753;28;20337;-56
2023/01/01 02:10:40;;;;;;;;;;;9.50;99.90;;;;;;5092475;28;20014;-57
2023/01/01 02:13:05;;;;;;;;;;;9.60;99.90;;;;;;5092463;28;20046;-57
2023/01/01 02:15:39;;;;;;;;;;;9.50;99.90;;;;;;5091131;28;20365;-56
2023/01/01 02:18:08;;;;;;;;;;;9.60;99.90;;;;;;5079183;28;19908;-56
2023/01/01 02:20:42;;;;;;;;;;;8.10;99.90;;;;;;5090933;28;19912;-56
2023/01/01 02:23:15;;;;;;;;;;;9.60;99.90;;;;;;5061303;28;19960;-56
2023/01/01 02:25:47;;;;;;;;;;;9.50;99.90;;;;;;5072626;28;19916;-56
2023/01/01 02:28:22;;;;;;;;;;;9.50;99.90;;;;;;5072271;28;19908;-55
2023/01/01 02:30:49;;;;;;;;;;;9.50;99.90;;;;;;5072463;28;19915;-56
2023/01/01 02:33:17;;;;;;;;;;;9.60;99.90;;;;;;5072187;28;19912;-52
2023/01/01 02:35:56;;;;;;;;;;;9.40;99.90;;;;;;5072373;28;19909;-56
2023/01/01 02:38:26;;;;;;;;;;;9.50;99.90;;;;;;5072226;28;19916;-53
2023/01/01 02:40:55;;;;;;;;;;;9.50;99.90;;;;;;5072292;28;19909;-57
2023/01/01 02:43:21;;;;;;;;;;;9.60;99.90;;;;;;5076041;28;19971;-53
2023/01/01 02:45:47;;;;;;;;;;;9.50;99.90;;;;;;5069260;28;20442;-56
2023/01/01 02:48:31;;;;;;;;;;;9.60;99.90;;;;;;5072144;28;19908;-56
2023/01/01 02:50:58;;;;;;;;;;;9.60;99.90;;;;;;5072365;28;19916;-56
2023/01/01 02:53:31;;;;;;;;;;;9.60;99.90;;;;;;5072016;28;19920;-57
2023/01/01 02:56:02;;;;;;;;;;;9.60;99.90;;;;;;5072146;28;20504;-54
2023/01/01 03:01:42;;;;;;;;;;;9.40;99.90;;;;;;5072376;28;19916;-56
2023/01/01 03:04:08;;;;;;;;;;;9.50;99.90;;;;;;5071998;28;19944;-55
2023/01/01 03:07:02;;;;;;;;;;;9.60;99.90;;;;;;5072026;28;19955;-53
2023/01/01 03:09:40;;;;;;;;;;;9.40;99.90;;;;;;5062517;28;19909;-54
2023/01/01 03:12:38;;;;;;;;;;;9.60;99.90;;;;;;5071962;28;19955;-53
2023/01/01 03:15:18;;;;;;;;;;;9.50;99.90;;;;;;5052463;28;19923;-57
2023/01/01 03:17:49;;;;;;;;;;;9.60;99.90;;;;;;5052803;28;19924;-55
2023/01/01 03:20:17;;;;;;;;;;;9.70;99.90;;;;;;5072858;28;19912;-56
2023/01/01 03:22:43;;;;;;;;;;;9.80;99.90;;;;;;5074545;28;19938;-57
2023/01/01 03:25:11;;;;;;;;;;;9.60;99.90;;;;;;5080976;28;19995;-55
2023/01/01 03:27:48;;;;;;;;;;;9.70;99.90;;;;;;5071339;28;19909;-55
2023/01/01 03:30:14;;;;;;;;;;;9.60;99.90;;;;;;5070781;28;20289;-56
2023/01/01 03:33:02;;;;;;;;;;;9.80;99.90;;;;;;5071537;28;19924;-56
2023/01/01 03:35:40;;;;;;;;;;;9.70;99.90;;;;;;5074062;28;19991;-56
2023/01/01 03:38:24;;;;;;;;;;;9.70;99.90;;;;;;5075739;28;19961;-57
2023/01/01 03:40:51;;;;;;;;;;;9.90;99.90;;;;;;5075748;28;19967;-57
2023/01/01 03:43:23;;;;;;;;;;;9.90;99.90;;;;;;5075583;28;20015;-56
2023/01/01 03:45:49;;;;;;;;;;;9.80;99.90;;;;;;5075579;28;19947;-57
2023/01/01 03:48:15;;;;;;;;;;;9.80;99.90;;;;;;5075299;28;20358;-57
2023/01/01 03:50:40;;;;;;;;;;;9.90;99.90;;;;;;5076352;28;19912;-57
2023/01/01 03:53:16;;;;;;;;;;;9.50;99.90;;;;;;5075327;28;19955;-57
2023/01/01 03:55:47;;;;;;;;;;;9.60;99.90;;;;;;5079029;28;20360;-57
2023/01/01 03:58:35;;;;;;;;;;;9.70;99.90;;;;;;5081876;28;19912;-58
2023/01/01 04:01:03;;;;;;;;;;;6.30;99.90;;;;;;5071400;28;20030;-57
2023/01/01 04:03:29;;;;;;;;;;;9.70;99.90;;;;;;5093548;28;20141;-57
2023/01/01 04:05:55;;;;;;;;;;;9.60;99.90;;;;;;5093526;28;20061;-57
2023/01/01 04:08:21;;;;;;;;;;;9.60;99.90;;;;;;5089028;28;20409;-57
2023/01/01 04:10:57;;;;;;;;;;;9.60;99.90;;;;;;5084285;28;20399;-57
2023/01/01 04:13:23;;;;;;;;;;;9.60;99.90;;;;;;5079500;28;20003;-56
2023/01/01 04:15:48;;;;;;;;;;;9.50;99.90;;;;;;5069883;28;19990;-57
2023/01/01 04:18:14;;;;;;;;;;;9.60;99.90;;;;;;5074792;28;20411;-57
2023/01/01 04:20:40;;;;;;;;;;;9.50;99.90;;;;;;5075974;28;19924;-57
2023/01/01 04:23:05;;;;;;;;;;;9.60;99.90;;;;;;5079128;28;20300;-56
2023/01/01 04:25:31;;;;;;;;;;;9.20;99.90;;;;;;5094797;28;19935;-57
2023/01/01 04:27:57;;;;;;;;;;;9.50;99.90;;;;;;5087523;28;20014;-56
2023/01/01 04:30:23;;;;;;;;;;;9.60;99.90;;;;;;5078092;28;19920;-56
2023/01/01 04:32:48;;;;;;;;;;;9.70;99.90;;;;;;5091998;28;19977;-57
2023/01/01 04:35:14;;;;;;;;;;;9.40;99.90;;;;;;5075715;28;19996;-57
2023/01/01 04:37:41;;;;;;;;;;;9.70;99.90;;;;;;5057655;28;19917;-57
2023/01/01 04:40:07;;;;;;;;;;;9.50;99.90;;;;;;5075143;28;20368;-57
2023/01/01 04:42:33;;;;;;;;;;;9.70;99.90;;;;;;5071603;28;19913;-57
2023/01/01 04:44:59;;;;;;;;;;;9.60;99.90;;;;;;5075902;28;20327;-57
2023/01/01 04:47:25;;;;;;;;;;;9.60;99.90;;;;;;5092543;28;20402;-54
2023/01/01 04:49:51;;;;;;;;;;;9.70;99.90;;;;;;5085589;28;19920;-57
2023/01/01 04:52:17;;;;;;;;;;;9.90;99.90;;;;;;5074071;28;19920;-55
2023/01/01 04:54:43;;;;;;;;;;;9.70;99.90;;;;;;5074163;28;19965;-57
2023/01/01 04:57:08;;;;;;;;;;;9.70;99.90;;;;;;5074302;28;19947;-57
2023/01/01 04:59:34;;;;;;;;;;;9.70;99.90;;;;;;5074048;28;19912;-57
2023/01/01 05:02:00;;;;;;;;;;;9.80;99.90;;;;;;5073706;28;19912;-58
2023/01/01 05:04:25;;;;;;;;;;;9.60;99.90;;;;;;5074162;28;20050;-57
2023/01/01 05:06:51;;;;;;;;;;;9.60;99.90;;;;;;5087974;28;19999;-57
2023/01/01 05:09:16;;;;;;;;;;;9.80;99.90;;;;;;5086751;28;19913;-58
2023/01/01 05:11:42;;;;;;;;;;;9.80;99.90;;;;;;5073832;28;20304;-57
2023/01/01 05:14:07;;;;;;;;;;;9.80;99.90;;;;;;5086485;28;19916;-57
2023/01/01 05:16:34;;;;;;;;;;;9.80;99.90;;;;;;5086221;28;19919;-57
2023/01/01 05:19:00;;;;;;;;;;;9.80;99.90;;;;;;5093680;28;19912;-57
2023/01/01 05:21:28;;;;;;;;;;;9.80;99.90;;;;;;5091145;28;19912;-55
2023/01/01 05:23:55;;;;;;;;;;;9.70;99.90;;;;;;5064399;28;19916;-57
2023/01/01 05:26:22;;;;;;;;;;;9.60;99.90;;;;;;5073823;28;19908;-58
2023/01/01 05:28:48;;;;;;;;;;;9.60;99.90;;;;;;5073455;28;19915;-57
2023/01/01 05:31:15;;;;;;;;;;;9.60;99.90;;;;;;5073659;28;19909;-56
2023/01/01 05:33:40;;;;;;;;;;;9.60;99.90;;;;;;5073397;28;19920;-57
2023/01/01 05:36:07;;;;;;;;;;;9.50;99.90;;;;;;5073454;28;19912;-57
2023/01/01 05:38:33;;;;;;;;;;;9.50;99.90;;;;;;5073093;28;20365;-57
2023/01/01 05:41:03;;;;;;;;;;;9.50;99.90;;;;;;5073364;28;19987;-58
2023/01/01 05:43:29;;;;;;;;;;;9.60;99.90;;;;;;5073246;28;19924;-57
2023/01/01 05:45:58;;;;;;;;;;;9.60;99.90;;;;;;5077196;28;19934;-56
2023/01/01 05:48:24;;;;;;;;;;;9.60;99.90;;;;;;5035183;28;19913;-54
2023/01/01 05:50:49;;;;;;;;;;;9.60;99.90;;;;;;5059547;28;19917;-56
2023/01/01 05:53:15;;;;;;;;;;;9.70;99.90;;;;;;5087077;28;19916;-56
2023/01/01 05:55:41;;;;;;;;;;;9.60;99.90;;;;;;5087912;28;19912;-57
2023/01/01 05:58:06;;;;;;;;;;;9.50;99.90;;;;;;5085719;28;19919;-57
2023/01/01 06:00:32;;;;;;;;;;;9.50;99.90;;;;;;5062311;28;19913;-57
2023/01/01 06:02:57;;;;;;;;;;;9.30;99.90;;;;;;5072787;28;19913;-55
2023/01/01 06:05:23;;;;;;;;;;;9.40;99.90;;;;;;5083472;28;20402;-57
2023/01/01 06:07:48;;;;;;;;;;;9.60;99.90;;;;;;5081681;28;19923;-56
2023/01/01 06:10:14;;;;;;;;;;;9.60;99.90;;;;;;5077499;28;20360;-57
2023/01/01 06:12:40;;;;;;;;;;;9.70;99.90;;;;;;5109489;22;19927;-66
2023/01/01 06:15:05;;;;;;;;;;;9.60;99.90;;;;;;5061943;28;20368;-67
2023/01/01 06:17:32;;;;;;;;;;;9.40;99.90;;;;;;5086434;28;20331;-67
2023/01/01 06:19:57;;;;;;;;;;;9.60;99.90;;;;;;5057520;28;19913;-67
2023/01/01 06:22:23;;;;;;;;;;;9.60;99.90;;;;;;5052733;28;19928;-67
2023/01/01 06:24:48;;;;;;;;;;;9.50;99.90;;;;;;5072220;28;19919;-67
2023/01/01 06:27:14;;;;;;;;;;;9.50;99.90;;;;;;5072272;28;20372;-67
2023/01/01 06:29:40;;;;;;;;;;;9.50;99.90;;;;;;5052478;28;19934;-67
2023/01/01 06:32:05;;;;;;;;;;;9.50;99.90;;;;;;5069196;28;20003;-67
2023/01/01 06:34:31;;;;;;;;;;;9.60;99.90;;;;;;5055598;28;19924;-67
2023/01/01 06:36:56;;;;;;;;;;;9.60;99.90;;;;;;5072052;28;20388;-67
2023/01/01 06:39:22;;;;;;;;;;;9.60;99.90;;;;;;5072292;28;19913;-67
2023/01/01 06:41:47;;;;;;;;;;;9.70;99.90;;;;;;5072131;28;20167;-67
2023/01/01 06:44:13;;;;;;;;;;;9.60;99.90;;;;;;5071748;28;19935;-67
2023/01/01 06:46:38;;;;;;;;;;;9.50;99.90;;;;;;5071520;28;19913;-67
2023/01/01 06:49:05;;;;;;;;;;;9.50;99.90;;;;;;5071851;28;19924;-67
2023/01/01 06:51:35;;;;;;;;;;;9.50;99.90;;;;;;5070694;28;19917;-67
2023/01/01 06:54:01;;;;;;;;;;;9.50;99.90;;;;;;5071717;28;20327;-67
2023/01/01 06:56:27;;;;;;;;;;;9.60;99.90;;;;;;5071643;28;19920;-67
2023/01/01 06:58:52;;;;;;;;;;;9.40;99.90;;;;;;5071732;28;19912;-67
2023/01/01 07:01:19;;;;;;;;;;;9.30;99.90;;;;;;5060494;28;19929;-67
2023/01/01 07:03:52;;;;;;;;;;;9.30;99.90;;;;;;5071679;28;19954;-67
2023/01/01 07:06:17;;;;;;;;;;;9.50;99.90;;;;;;5071605;28;19954;-67
2023/01/01 07:08:43;;;;;;;;;;;9.60;99.90;;;;;;5071794;28;19909;-67
2023/01/01 07:11:08;;;;;;;;;;;9.60;99.90;;;;;;5070845;28;19919;-67
2023/01/01 07:13:34;;;;;;;;;;;9.60;99.90;;;;;;5081396;28;20410;-67
2023/01/01 07:15:59;;;;;;;;;;;9.60;99.90;;;;;;5080347;28;20434;-67
2023/01/01 07:18:25;;;;;;;;;;;9.60;99.90;;;;;;5076264;28;20442;-67
2023/01/01 07:20:55;;;;;;;;;;;9.60;99.90;;;;;;5090804;28;19912;-67
2023/01/01 07:23:21;;;;;;;;;;;9.60;99.90;;;;;;5088913;28;19912;-67
2023/01/01 07:25:50;;;;;;;;;;;9.60;99.90;;;;;;5071714;28;19912;-67
2023/01/01 07:28:16;;;;;;;;;;;9.50;99.90;;;;;;5086572;28;19951;-67
2023/01/01 07:30:41;;;;;;;;;;;9.30;99.90;;;;;;5067903;28;19959;-67
2023/01/01 07:33:10;;;;;;;;;;;9.40;99.90;;;;;;5058808;28;20439;-67
2023/01/01 07:35:36;;;;;;;;;;;9.40;99.90;;;;;;5091175;28;19916;-67
2023/01/01 07:38:01;;;;;;;;;;;9.40;99.90;;;;;;5072206;28;19912;-67
2023/01/01 07:40:27;;;;;;;;;;;9.20;99.90;;;;;;5061437;28;19912;-67
2023/01/01 07:42:52;;;;;;;;;;;9.50;99.90;;;;;;5091889;28;20007;-67
2023/01/01 07:45:18;;;;;;;;;;;9.40;99.90;;;;;;5065184;28;19912;-67
2023/01/01 07:47:46;;;;;;;;;;;9.40;99.90;;;;;;5071596;28;20377;-67
2023/01/01 07:50:15;;;;;;;;;;;9.40;99.90;;;;;;5071425;28;19916;-67
2023/01/01 07:52:40;;;;;;;;;;;9.40;99.90;;;;;;5087072;28;19969;-67
2023/01/01 07:55:07;;;;;;;;;;;9.40;99.90;;;;;;5090131;28;19916;-67
2023/01/01 07:57:32;;;;;;;;;;;9.30;99.90;;;;;;5081153;28;19914;-67
2023/01/01 07:59:58;;;;;;;;;;;9.30;99.90;;;;;;5071958;28;19947;-67
2023/01/01 08:02:23;;;;;;;;;;;9.60;99.90;;;;;;5083854;28;19916;-67
2023/01/01 08:04:49;;;;;;;;;;;9.60;99.90;;;;;;5091909;28;19931;-67
2023/01/01 08:07:14;;;;;;;;;;;9.50;99.90;;;;;;5089695;28;20378;-67
2023/01/01 08:09:40;;;;;;;;;;;9.60;99.90;;;;;;5091561;28;20340;-67
2023/01/01 08:12:05;;;;;;;;;;;9.80;99.90;;;;;;5074639;28;19916;-67
2023/01/01 08:14:31;;;;;;;;;;;9.80;99.90;;;;;;5071044;28;19966;-57
2023/01/01 08:16:56;;;;;;;;;;;9.80;99.90;;;;;;5070767;28;20456;-58
2023/01/01 08:19:22;;;;;;;;;;;9.70;99.90;;;;;;5070882;28;20402;-60
2023/01/01 08:21:47;;;;;;;;;;;9.70;99.90;;;;;;5073008;28;19912;-59
2023/01/01 08:24:13;;;;;;;;;;;9.80;99.90;;;;;;5074510;28;19913;-58
2023/01/01 08:26:38;;;;;;;;;;;9.70;99.90;;;;;;5073734;28;19952;-58
2023/01/01 08:29:05;;;;;;;;;;;9.70;99.90;;;;;;5073680;28;19920;-60
2023/01/01 08:31:30;;;;;;;;;;;9.70;99.90;;;;;;5074155;28;19912;-59
2023/01/01 08:33:56;;;;;;;;;;;9.80;99.90;;;;;;5074163;28;19954;-56
2023/01/01 08:36:22;;;;;;;;;;;9.80;99.90;;;;;;5056142;28;19917;-68
2023/01/01 08:38:47;;;;;;;;;;;9.70;99.90;;;;;;5056503;28;19909;-64
2023/01/01 08:41:13;;;;;;;;;;;9.80;99.90;;;;;;5074279;28;20372;-68
2023/01/01 08:43:38;;;;;;;;;;;9.90;99.90;;;;;;5074071;28;20022;-68
2023/01/01 08:46:04;;;;;;;;;;;9.80;99.90;;;;;;5060229;28;19936;-68
2023/01/01 08:48:29;;;;;;;;;;;9.80;99.90;;;;;;5073760;28;19919;-69
2023/01/01 08:50:55;;;;;;;;;;;9.80;99.90;;;;;;5073913;28;20003;-70
2023/01/01 08:53:21;;;;;;;;;;;9.90;99.90;;;;;;5073920;28;20070;-68
2023/01/01 08:56:04;;;;;;;;;;;9.80;99.90;;;;;;5073655;28;19999;-68
2023/01/01 08:58:30;;;;;;;;;;;9.80;99.90;;;;;;5073792;28;19916;-68
2023/01/01 09:00:55;;;;;;;;;;;9.80;99.90;;;;;;5060048;28;19912;-68
2023/01/01 09:03:21;;;;;;;;;;;9.80;99.90;;;;;;5073775;28;19917;-68
2023/01/01 09:05:47;;;;;;;;;;;10.00;99.90;;;;;;5072828;28;20372;-68
2023/01/01 09:08:12;;;;;;;;;;;9.90;99.90;;;;;;5072630;28;19990;-68
2023/01/01 09:10:38;;;;;;;;;;;9.90;99.90;;;;;;5073666;28;19913;-68
2023/01/01 09:13:03;;;;;;;;;;;10.00;99.90;;;;;;5059559;28;20000;-68
2023/01/01 09:15:29;;;;;;;;;;;9.90;99.90;;;;;;5068312;28;19912;-69
2023/01/01 09:17:55;;;;;;;;;;;10.00;99.90;;;;;;5073295;28;19920;-68
2023/01/01 09:20:20;;;;;;;;;;;10.00;99.90;;;;;;5073634;28;19913;-69
2023/01/01 09:22:46;;;;;;;;;;;9.90;99.90;;;;;;5073170;28;19920;-68
2023/01/01 09:25:11;;;;;;;;;;;7.40;99.90;;;;;;5073552;28;20369;-69
2023/01/01 09:27:37;;;;;;;;;;;9.90;99.90;;;;;;5073195;28;20276;-66
2023/01/01 09:30:03;;;;;;;;;;;10.00;99.90;;;;;;5072996;28;19912;-69
2023/01/01 09:32:29;;;;;;;;;;;10.10;99.90;;;;;;5072237;28;20408;-69
2023/01/01 09:34:56;;;;;;;;;;;10.00;99.90;;;;;;5073545;28;19991;-69
2023/01/01 09:37:21;;;;;;;;;;;10.10;99.90;;;;;;5073427;28;20154;-68
2023/01/01 09:39:47;;;;;;;;;;;10.10;99.90;;;;;;5072979;28;19977;-68
2023/01/01 09:42:12;;;;;;;;;;;10.30;99.90;;;;;;5071764;28;19919;-69
2023/01/01 09:44:50;;;;;;;;;;;10.00;99.90;;;;;;5072343;28;20003;-68
2023/01/01 09:47:25;;;;;;;;;;;9.90;99.90;;;;;;5054936;28;19920;-68
2023/01/01 09:49:51;;;;;;;;;;;10.00;99.90;;;;;;5072955;28;19923;-67
2023/01/01 09:52:17;;;;;;;;;;;9.90;99.90;;;;;;5072553;28;19916;-67
2023/01/01 09:54:52;;;;;;;;;;;10.10;99.90;;;;;;5068957;28;20349;-68
2023/01/01 09:57:18;;;;;;;;;;;10.20;99.90;;;;;;5073048;28;19913;-69
2023/01/01 09:59:43;;;;;;;;;;;10.20;99.90;;;;;;5072830;28;19912;-68
2023/01/01 10:02:32;;;;;;;;;;;10.20;99.90;;;;;;5057491;28;20007;-68
2023/01/01 10:05:10;;;;;;;;;;;10.30;99.90;;;;;;5052216;28;19920;-68
2023/01/01 10:07:41;;;;;;;;;;;10.40;99.90;;;;;;5071701;28;19912;-68
2023/01/01 10:10:12;;;;;;;;;;;10.50;99.90;;;;;;5071482;28;19955;-68
2023/01/01 10:12:47;;;;;;;;;;;10.30;99.90;;;;;;5071446;28;20384;-69
2023/01/01 10:15:19;;;;;;;;;;;10.20;99.90;;;;;;5071801;28;19916;-68
2023/01/01 10:17:50;;;;;;;;;;;10.20;99.90;;;;;;5071548;28;19963;-69
2023/01/01 10:20:15;;;;;;;;;;;10.20;99.90;;;;;;5071648;28;20276;-69
2023/01/01 10:22:43;;;;;;;;;;;10.30;99.90;;;;;;5071277;28;19912;-69
2023/01/01 10:25:15;;;;;;;;;;;10.30;99.90;;;;;;5071336;28;19912;-70
2023/01/01 10:27:45;;;;;;;;;;;10.20;99.90;;;;;;5069578;28;19912;-69
2023/01/01 10:30:16;;;;;;;;;;;10.30;99.90;;;;;;5068993;28;20023;-69
2023/01/01 10:32:43;;;;;;;;;;;10.40;99.90;;;;;;5068626;28;19916;-69
2023/01/01 10:35:16;;;;;;;;;;;10.40;99.90;;;;;;5071286;28;19913;-68
2023/01/01 10:37:42;;;;;;;;;;;10.30;99.90;;;;;;5070328;28;19967;-67
2023/01/01 10:40:28;;;;;;;;;;;10.40;99.90;;;;;;5070884;28;19968;-69
2023/01/01 10:42:55;;;;;;;;;;;10.40;99.90;;;;;;5070150;28;19971;-69
2023/01/01 10:45:36;;;;;;;;;;;10.30;99.90;;;;;;5068969;28;19913;-70
2023/01/01 10:48:21;;;;;;;;;;;10.30;99.90;;;;;;5070978;28;20007;-68
2023/01/01 10:50:56;;;;;;;;;;;10.20;99.90;;;;;;5069071;28;19939;-68
2023/01/01 10:53:40;;;;;;;;;;;10.30;99.90;;;;;;5070747;28;20412;-68
2023/01/01 10:56:09;;;;;;;;;;;10.10;99.90;;;;;;5070701;28;19916;-68
2023/01/01 10:58:36;;;;;;;;;;;10.30;99.90;;;;;;5071596;28;20442;-68
2023/01/01 11:01:03;;;;;;;;;;;10.10;99.90;;;;;;5071213;28;19916;-69
2023/01/01 11:03:29;;;;;;;;;;;10.40;99.90;;;;;;5071410;28;20312;-68
2023/01/01 11:06:04;;;;;;;;;;;10.30;99.90;;;;;;5071062;28;19920;-68
2023/01/01 11:08:30;;;;;;;;;;;10.40;99.90;;;;;;5071230;28;20379;-68
2023/01/01 11:11:00;;;;;;;;;;;10.40;99.90;;;;;;5053652;28;20426;-68
2023/01/01 11:13:27;;;;;;;;;;;10.40;99.90;;;;;;5071479;28;19991;-68
2023/01/01 11:15:52;;;;;;;;;;;10.30;99.90;;;;;;5057722;28;19917;-68
2023/01/01 11:18:23;;;;;;;;;;;10.40;99.90;;;;;;5031747;28;19916;-68
2023/01/01 11:20:53;;;;;;;;;;;10.40;99.90;;;;;;5045019;28;19913;-68
2023/01/01 11:23:39;;;;;;;;;;;10.40;99.90;;;;;;5046836;28;20405;-68
2023/01/01 11:26:11;;;;;;;;;;;10.40;99.90;;;;;;5051238;28;19983;-67
2023/01/01 11:28:37;;;;;;;;;;;10.50;99.90;;;;;;5063183;28;19984;-68
2023/01/01 11:31:02;;;;;;;;;;;10.40;99.90;;;;;;5065391;28;19913;-68
2023/01/01 11:33:30;;;;;;;;;;;10.50;99.90;;;;;;5034103;28;20436;-69
2023/01/01 11:35:56;;;;;;;;;;;10.50;99.90;;;;;;5037436;28;19912;-68
2023/01/01 11:38:22;;;;;;;;;;;10.60;99.90;;;;;;5041719;28;19916;-67
2023/01/01 11:40:51;;;;;;;;;;;10.70;99.90;;;;;;5051257;28;19909;-67
2023/01/01 11:43:21;;;;;;;;;;;10.70;99.90;;;;;;5032604;28;19913;-67
2023/01/01 11:45:48;;;;;;;;;;;10.60;99.90;;;;;;5031659;28;19913;-69
2023/01/01 11:48:19;;;;;;;;;;;10.50;99.90;;;;;;5044916;28;19913;-68
2023/01/01 11:50:49;;;;;;;;;;;10.30;99.90;;;;;;5051297;28;20291;-68
2023/01/01 11:53:23;;;;;;;;;;;10.60;99.90;;;;;;5051235;28;19912;-67
2023/01/01 11:55:56;;;;;;;;;;;10.50;99.90;;;;;;5050110;28;20328;-69
2023/01/01 11:58:31;;;;;;;;;;;10.60;99.90;;;;;;5055173;28;19928;-68
2023/01/01 12:00:59;;;;;;;;;;;10.70;99.90;;;;;;5055068;28;19913;-68
2023/01/01 12:03:29;;;;;;;;;;;10.70;99.90;;;;;;5044060;28;20293;-70
2023/01/01 12:06:07;;;;;;;;;;;10.70;99.90;;;;;;5050435;28;19912;-69
2023/01/01 12:08:41;;;;;;;;;;;10.60;99.90;;;;;;5044128;28;19917;-70
2023/01/01 12:11:11;;;;;;;;;;;10.50;99.90;;;;;;5037414;28;19920;-70
2023/01/01 12:13:44;;;;;;;;;;;10.70;99.90;;;;;;5052345;28;20027;-70
2023/01/01 12:16:19;;;;;;;;;;;10.70;99.90;;;;;;5074905;28;20003;-70
2023/01/01 12:19:05;;;;;;;;;;;10.70;99.90;;;;;;5074724;28;20006;-70
2023/01/01 12:21:32;;;;;;;;;;;10.60;99.90;;;;;;5074099;28;19919;-70
2023/01/01 12:23:58;;;;;;;;;;;10.80;99.90;;;;;;5057203;28;20373;-70
2023/01/01 12:26:25;;;;;;;;;;;11.10;99.90;;;;;;5073336;28;19915;-70
2023/01/01 12:28:54;;;;;;;;;;;10.90;99.90;;;;;;5074320;28;19913;-69
2023/01/01 12:31:22;;;;;;;;;;;10.80;99.90;;;;;;5058322;28;20361;-69
2023/01/01 12:33:54;;;;;;;;;;;10.90;99.90;;;;;;5070669;28;19922;-69
2023/01/01 12:36:31;;;;;;;;;;;10.80;99.90;;;;;;5074687;28;19908;-69
2023/01/01 12:39:15;;;;;;;;;;;10.80;99.90;;;;;;5074152;28;19917;-69
2023/01/01 12:41:45;;;;;;;;;;;10.90;99.90;;;;;;5073504;28;19943;-69
2023/01/01 12:44:29;;;;;;;;;;;10.90;99.90;;;;;;5074467;28;19912;-69
2023/01/01 12:47:00;;;;;;;;;;;10.90;99.90;;;;;;5073128;28;20027;-69
2023/01/01 12:49:40;;;;;;;;;;;10.70;99.90;;;;;;5074009;28;19913;-69
2023/01/01 12:52:09;;;;;;;;;;;10.50;99.90;;;;;;5074261;28;19919;-69
2023/01/01 12:54:44;;;;;;;;;;;10.60;99.90;;;;;;5072543;28;20645;-69
2023/01/01 12:57:13;;;;;;;;;;;10.70;99.90;;;;;;5074100;28;19964;-69
2023/01/01 12:59:42;;;;;;;;;;;10.60;99.90;;;;;;5073770;28;20011;-71
2023/01/01 13:02:25;;;;;;;;;;;10.50;99.90;;;;;;5072812;28;19913;-69
2023/01/01 13:04:52;;;;;;;;;;;10.50;99.90;;;;;;5073498;28;19920;-69
2023/01/01 13:07:21;;;;;;;;;;;10.50;99.90;;;;;;5072623;28;19919;-69
2023/01/01 13:09:47;;;;;;;;;;;10.50;99.90;;;;;;5073771;28;20396;-69
2023/01/01 13:12:15;;;;;;;;;;;10.40;99.90;;;;;;5073528;28;20392;-69
2023/01/01 13:14:42;;;;;;;;;;;10.60;99.90;;;;;;5072454;28;19952;-69
2023/01/01 13:17:18;;;;;;;;;;;10.50;99.90;;;;;;5073226;28;19920;-69
2023/01/01 13:19:44;;;;;;;;;;;10.60;99.90;;;;;;5072659;28;19993;-69
2023/01/01 13:22:40;;;;;;;;;;;10.50;99.90;;;;;;5073463;28;20319;-69
2023/01/01 13:25:15;;;;;;;;;;;10.60;99.90;;;;;;5059858;28;20399;-69
2023/01/01 13:30:45;;;;;;;;;;;10.60;99.90;;;;;;5071345;28;19913;-69
2023/01/01 13:33:22;;;;;;;;;;;10.60;99.90;;;;;;5072248;28;19923;-69
2023/01/01 13:36:12;;;;;;;;;;;10.40;99.90;;;;;;5072254;28;19916;-69
2023/01/01 13:38:45;;;;;;;;;;;10.40;99.90;;;;;;5073335;28;19991;-69
2023/01/01 13:41:29;;;;;;;;;;;10.30;99.90;;;;;;5073542;28;19959;-69
2023/01/01 13:43:58;;;;;;;;;;;10.30;99.90;;;;;;5072176;28;19947;-69
2023/01/01 13:46:26;;;;;;;;;;;10.40;99.90;;;;;;5071161;28;19913;-69
2023/01/01 13:49:05;;;;;;;;;;;10.50;99.90;;;;;;5072735;28;19956;-69
2023/01/01 13:51:44;;;;;;;;;;;10.40;99.90;;;;;;5065777;28;19912;-69
2023/01/01 13:54:15;;;;;;;;;;;10.50;99.90;;;;;;5073157;28;19916;-69
2023/01/01 13:56:59;;;;;;;;;;;10.80;99.90;;;;;;5073094;28;19912;-69
2023/01/01 13:59:27;;;;;;;;;;;10.40;99.90;;;;;;5072803;28;19958;-69
2023/01/01 14:02:11;;;;;;;;;;;10.30;99.90;;;;;;5068410;28;20291;-69
2023/01/01 14:04:49;;;;;;;;;;;10.20;99.90;;;;;;5073188;28;19908;-69
2023/01/01 14:07:14;;;;;;;;;;;10.10;99.90;;;;;;5072912;28;19976;-69
2023/01/01 14:09:42;;;;;;;;;;;10.10;99.90;;;;;;5072451;28;19999;-69
2023/01/01 14:12:33;;;;;;;;;;;10.30;99.90;;;;;;5072581;28;19917;-69
2023/01/01 14:15:12;;;;;;;;;;;10.30;99.90;;;;;;5068108;28;20408;-70
2023/01/01 14:17:39;;;;;;;;;;;10.20;99.90;;;;;;5072909;28;19912;-70
2023/01/01 14:20:06;;;;;;;;;;;10.20;99.90;;;;;;5072319;28;19908;-70
2023/01/01 14:22:32;;;;;;;;;;;10.40;99.90;;;;;;5054729;28;19917;-70
2023/01/01 14:24:58;;;;;;;;;;;10.40;99.90;;;;;;5072294;28;19913;-69
2023/01/01 14:27:25;;;;;;;;;;;10.40;99.90;;;;;;5071765;28;19913;-69
2023/01/01 14:29:52;;;;;;;;;;;10.50;99.90;;;;;;5072564;28;19912;-69
2023/01/01 14:32:22;;;;;;;;;;;10.40;99.90;;;;;;5072380;28;19923;-69
2023/01/01 14:34:57;;;;;;;;;;;10.50;99.90;;;;;;5071977;28;19912;-69
2023/01/01 14:37:23;;;;;;;;;;;10.40;99.90;;;;;;5071992;28;20376;-69
2023/01/01 14:40:11;;;;;;;;;;;10.30;99.90;;;;;;5072004;28;19909;-69
2023/01/01 14:42:38;;;;;;;;;;;10.40;99.90;;;;;;5071854;28;20369;-69